sensor_id;sensor_type;location;lat;lon;timestamp;P1;durP1;ratioP1;P2;durP2;ratioP2
66893;SDS011;53801;55.786;49.142;2022-11-04T00:01:23;5.03;;;1.60;;
66893;SDS011;53801;55.786;49.142;2022-11-04T00:03:48;3.03;;;1.38;;
66893;SDS011;53801;55.786;49.142;2022-11-04T00:06:14;4.00;;;1.55;;
66893;SDS011;53801;55.786;49.142;2022-11-04T00:08:39;5.27;;;1.90;;
66893;SDS011;53801;55.786;49.142;2022-11-04T00:11:05;4.90;;;2.10;;
66893;SDS011;53801;55.786;49.142;2022-11-04T00:13:49;4.32;;;1.67;;
66893;SDS011;53801;55.786;49.142;2022-11-04T00:16:14;4.40;;;1.43;;
66893;SDS011;53801;55.786;49.142;2022-11-04T00:18:58;3.83;;;1.75;;
66893;SDS011;53801;55.786;49.142;2022-11-04T00:21:24;4.00;;;1.67;;
66893;SDS011;53801;55.786;49.142;2022-11-04T00:24:08;4.65;;;1.63;;
66893;SDS011;53801;55.786;49.142;2022-11-04T00:26:53;3.83;;;1.50;;
66893;SDS011;53801;55.786;49.142;2022-11-04T00:29:38;5.40;;;1.30;;
66893;SDS011;53801;55.786;49.142;2022-11-04T00:32:03;3.73;;;1.60;;
66893;SDS011;53801;55.786;49.142;2022-11-04T00:34:47;3.38;;;1.60;;
66893;SDS011;53801;55.786;49.142;2022-11-04T00:37:12;4.30;;;1.70;;
66893;SDS011;53801;55.786;49.142;2022-11-04T00:39:38;4.10;;;1.63;;
66893;SDS011;53801;55.786;49.142;2022-11-04T00:42:03;4.40;;;1.60;;
66893;SDS011;53801;55.786;49.142;2022-11-04T00:44:29;5.23;;;1.70;;
66893;SDS011;53801;55.786;49.142;2022-11-04T00:46:54;9.00;;;3.90;;
66893;SDS011;53801;55.786;49.142;2022-11-04T00:49:19;5.20;;;1.80;;
66893;SDS011;53801;55.786;49.142;2022-11-04T00:51:45;4.60;;;1.70;;
66893;SDS011;53801;55.786;49.142;2022-11-04T00:54:10;3.70;;;1.73;;
66893;SDS011;53801;55.786;49.142;2022-11-04T00:56:36;3.80;;;1.47;;
66893;SDS011;53801;55.786;49.142;2022-11-04T00:59:02;5.30;;;1.35;;
66893;SDS011;53801;55.786;49.142;2022-11-04T01:01:27;4.27;;;1.40;;
66893;SDS011;53801;55.786;49.142;2022-11-04T01:03:53;3.30;;;1.30;;
66893;SDS011;53801;55.786;49.142;2022-11-04T01:06:19;3.17;;;1.38;;
66893;SDS011;53801;55.786;49.142;2022-11-04T01:08:45;3.50;;;1.37;;
66893;SDS011;53801;55.786;49.142;2022-11-04T01:11:10;3.42;;;1.30;;
66893;SDS011;53801;55.786;49.142;2022-11-04T01:13:36;5.13;;;1.53;;
66893;SDS011;53801;55.786;49.142;2022-11-04T01:16:03;3.72;;;1.40;;
66893;SDS011;53801;55.786;49.142;2022-11-04T01:18:29;4.30;;;1.60;;
66893;SDS011;53801;55.786;49.142;2022-11-04T01:20:59;4.20;;;1.83;;
66893;SDS011;53801;55.786;49.142;2022-11-04T01:23:25;3.85;;;1.63;;
66893;SDS011;53801;55.786;49.142;2022-11-04T01:25:50;3.33;;;1.40;;
66893;SDS011;53801;55.786;49.142;2022-11-04T01:28:15;4.03;;;1.60;;
66893;SDS011;53801;55.786;49.142;2022-11-04T01:30:41;3.37;;;1.10;;
66893;SDS011;53801;55.786;49.142;2022-11-04T01:33:06;3.60;;;1.40;;
66893;SDS011;53801;55.786;49.142;2022-11-04T01:35:31;3.70;;;1.50;;
66893;SDS011;53801;55.786;49.142;2022-11-04T01:37:57;4.47;;;1.70;;
66893;SDS011;53801;55.786;49.142;2022-11-04T01:40:23;3.95;;;1.50;;
66893;SDS011;53801;55.786;49.142;2022-11-04T01:42:48;3.40;;;1.17;;
66893;SDS011;53801;55.786;49.142;2022-11-04T01:45:14;4.60;;;1.48;;
66893;SDS011;53801;55.786;49.142;2022-11-04T01:47:40;3.60;;;1.77;;
66893;SDS011;53801;55.786;49.142;2022-11-04T01:50:08;3.70;;;1.40;;
66893;SDS011;53801;55.786;49.142;2022-11-04T01:52:39;3.83;;;1.23;;
66893;SDS011;53801;55.786;49.142;2022-11-04T01:55:09;7.00;;;1.38;;
66893;SDS011;53801;55.786;49.142;2022-11-04T01:57:39;3.70;;;1.70;;
66893;SDS011;53801;55.786;49.142;2022-11-04T02:00:06;4.05;;;1.30;;
66893;SDS011;53801;55.786;49.142;2022-11-04T02:02:32;3.20;;;1.23;;
66893;SDS011;53801;55.786;49.142;2022-11-04T02:04:58;3.55;;;1.50;;
66893;SDS011;53801;55.786;49.142;2022-11-04T02:07:24;3.93;;;1.70;;
66893;SDS011;53801;55.786;49.142;2022-11-04T02:09:49;4.17;;;1.37;;
66893;SDS011;53801;55.786;49.142;2022-11-04T02:12:15;3.90;;;1.50;;
66893;SDS011;53801;55.786;49.142;2022-11-04T02:15:16;3.83;;;1.55;;
66893;SDS011;53801;55.786;49.142;2022-11-04T02:22:51;4.15;;;1.58;;
66893;SDS011;53801;55.786;49.142;2022-11-04T02:28:15;6.22;;;1.48;;
66893;SDS011;53801;55.786;49.142;2022-11-04T02:30:45;3.60;;;1.30;;
66893;SDS011;53801;55.786;49.142;2022-11-04T02:33:18;4.35;;;1.75;;
66893;SDS011;53801;55.786;49.142;2022-11-04T02:38:15;4.00;;;1.70;;
66893;SDS011;53801;55.786;49.142;2022-11-04T02:43:12;4.10;;;1.80;;
66893;SDS011;53801;55.786;49.142;2022-11-04T02:45:48;4.18;;;1.70;;
66893;SDS011;53801;55.786;49.142;2022-11-04T02:48:34;3.65;;;1.50;;
66893;SDS011;53801;55.786;49.142;2022-11-04T02:53:54;5.85;;;1.70;;
66893;SDS011;53801;55.786;49.142;2022-11-04T02:56:21;4.35;;;1.50;;
66893;SDS011;53801;55.786;49.142;2022-11-04T02:58:52;4.60;;;1.50;;
66893;SDS011;53801;55.786;49.142;2022-11-04T03:01:19;3.90;;;1.60;;
66893;SDS011;53801;55.786;49.142;2022-11-04T03:03:47;5.03;;;1.93;;
66893;SDS011;53801;55.786;49.142;2022-11-04T03:06:13;3.45;;;1.45;;
66893;SDS011;53801;55.786;49.142;2022-11-04T03:08:42;5.72;;;1.55;;
66893;SDS011;53801;55.786;49.142;2022-11-04T03:11:11;3.88;;;1.50;;
66893;SDS011;53801;55.786;49.142;2022-11-04T03:13:39;5.38;;;1.67;;
66893;SDS011;53801;55.786;49.142;2022-11-04T03:16:07;4.07;;;1.57;;
66893;SDS011;53801;55.786;49.142;2022-11-04T03:21:00;5.87;;;1.73;;
66893;SDS011;53801;55.786;49.142;2022-11-04T03:23:26;5.28;;;1.65;;
66893;SDS011;53801;55.786;49.142;2022-11-04T03:25:53;4.55;;;1.60;;
66893;SDS011;53801;55.786;49.142;2022-11-04T03:28:23;4.15;;;1.27;;
66893;SDS011;53801;55.786;49.142;2022-11-04T03:30:51;3.77;;;1.33;;
66893;SDS011;53801;55.786;49.142;2022-11-04T03:35:51;4.40;;;1.40;;
66893;SDS011;53801;55.786;49.142;2022-11-04T03:38:16;4.87;;;1.40;;
66893;SDS011;53801;55.786;49.142;2022-11-04T03:40:44;6.10;;;1.70;;
66893;SDS011;53801;55.786;49.142;2022-11-04T03:43:17;7.17;;;1.27;;
66893;SDS011;53801;55.786;49.142;2022-11-04T03:45:46;3.63;;;1.80;;
66893;SDS011;53801;55.786;49.142;2022-11-04T03:48:12;5.32;;;1.40;;
66893;SDS011;53801;55.786;49.142;2022-11-04T03:50:41;4.83;;;1.67;;
66893;SDS011;53801;55.786;49.142;2022-11-04T03:53:07;6.95;;;1.42;;
66893;SDS011;53801;55.786;49.142;2022-11-04T03:58:02;8.10;;;1.47;;
66893;SDS011;53801;55.786;49.142;2022-11-04T04:00:28;4.30;;;1.43;;
66893;SDS011;53801;55.786;49.142;2022-11-04T04:05:28;4.15;;;1.60;;
66893;SDS011;53801;55.786;49.142;2022-11-04T04:08:31;4.68;;;1.58;;
66893;SDS011;53801;55.786;49.142;2022-11-04T04:10:59;5.05;;;1.73;;
66893;SDS011;53801;55.786;49.142;2022-11-04T04:19:01;5.05;;;1.70;;
66893;SDS011;53801;55.786;49.142;2022-11-04T04:21:30;8.50;;;3.67;;
66893;SDS011;53801;55.786;49.142;2022-11-04T04:24:05;8.57;;;2.92;;
66893;SDS011;53801;55.786;49.142;2022-11-04T04:32:46;4.95;;;1.75;;
66893;SDS011;53801;55.786;49.142;2022-11-04T04:35:12;9.15;;;1.80;;
66893;SDS011;53801;55.786;49.142;2022-11-04T04:37:57;6.70;;;1.50;;
66893;SDS011;53801;55.786;49.142;2022-11-04T04:40:52;6.73;;;1.77;;
66893;SDS011;53801;55.786;49.142;2022-11-04T04:43:37;7.13;;;1.58;;
66893;SDS011;53801;55.786;49.142;2022-11-04T04:46:24;4.57;;;1.70;;
66893;SDS011;53801;55.786;49.142;2022-11-04T04:51:28;5.43;;;1.38;;
66893;SDS011;53801;55.786;49.142;2022-11-04T04:53:53;9.98;;;1.75;;
66893;SDS011;53801;55.786;49.142;2022-11-04T04:56:19;7.20;;;1.73;;
66893;SDS011;53801;55.786;49.142;2022-11-04T04:58:44;4.40;;;1.17;;
66893;SDS011;53801;55.786;49.142;2022-11-04T05:03:44;6.35;;;1.77;;
66893;SDS011;53801;55.786;49.142;2022-11-04T05:16:56;4.05;;;1.58;;
66893;SDS011;53801;55.786;49.142;2022-11-04T05:28:06;5.18;;;1.58;;
66893;SDS011;53801;55.786;49.142;2022-11-04T05:33:23;4.65;;;1.90;;
66893;SDS011;53801;55.786;49.142;2022-11-04T05:41:33;6.15;;;1.90;;
66893;SDS011;53801;55.786;49.142;2022-11-04T05:44:00;8.05;;;2.20;;
66893;SDS011;53801;55.786;49.142;2022-11-04T05:51:50;4.25;;;1.50;;
66893;SDS011;53801;55.786;49.142;2022-11-04T06:08:42;6.13;;;2.03;;
66893;SDS011;53801;55.786;49.142;2022-11-04T06:19:22;6.10;;;1.80;;
66893;SDS011;53801;55.786;49.142;2022-11-04T06:21:50;4.87;;;1.70;;
66893;SDS011;53801;55.786;49.142;2022-11-04T06:44:47;4.90;;;1.60;;
66893;SDS011;53801;55.786;49.142;2022-11-04T07:07:24;7.72;;;1.80;;
66893;SDS011;53801;55.786;49.142;2022-11-04T07:30:16;7.75;;;1.90;;
66893;SDS011;53801;55.786;49.142;2022-11-04T07:33:02;10.37;;;2.53;;
66893;SDS011;53801;55.786;49.142;2022-11-04T07:50:31;7.93;;;2.15;;
66893;SDS011;53801;55.786;49.142;2022-11-04T08:45:03;7.90;;;3.53;;
66893;SDS011;53801;55.786;49.142;2022-11-04T09:23:52;18.58;;;4.40;;
66893;SDS011;53801;55.786;49.142;2022-11-04T09:55:34;21.15;;;3.50;;
66893;SDS011;53801;55.786;49.142;2022-11-04T10:40:32;16.70;;;3.15;;
66893;SDS011;53801;55.786;49.142;2022-11-04T10:48:21;8.82;;;2.88;;
66893;SDS011;53801;55.786;49.142;2022-11-04T10:56:54;21.43;;;3.20;;
66893;SDS011;53801;55.786;49.142;2022-11-04T11:10:50;9.67;;;2.60;;
66893;SDS011;53801;55.786;49.142;2022-11-04T11:21:52;10.88;;;2.95;;
66893;SDS011;53801;55.786;49.142;2022-11-04T11:24:21;10.67;;;3.23;;
66893;SDS011;53801;55.786;49.142;2022-11-04T11:26:48;9.40;;;2.40;;
66893;SDS011;53801;55.786;49.142;2022-11-04T11:29:23;19.63;;;2.63;;
66893;SDS011;53801;55.786;49.142;2022-11-04T11:31:52;16.30;;;2.08;;
66893;SDS011;53801;55.786;49.142;2022-11-04T11:40:02;24.48;;;2.88;;
66893;SDS011;53801;55.786;49.142;2022-11-04T11:45:03;22.30;;;3.03;;
66893;SDS011;53801;55.786;49.142;2022-11-04T11:47:35;15.63;;;2.28;;
66893;SDS011;53801;55.786;49.142;2022-11-04T12:34:16;9.13;;;3.13;;
66893;SDS011;53801;55.786;49.142;2022-11-04T12:56:10;16.17;;;2.78;;
66893;SDS011;53801;55.786;49.142;2022-11-04T13:01:13;13.73;;;2.67;;
66893;SDS011;53801;55.786;49.142;2022-11-04T13:12:47;20.98;;;3.40;;
66893;SDS011;53801;55.786;49.142;2022-11-04T13:38:59;9.98;;;2.65;;
66893;SDS011;53801;55.786;49.142;2022-11-04T13:47:19;17.15;;;3.58;;
66893;SDS011;53801;55.786;49.142;2022-11-04T13:49:49;13.48;;;3.28;;
66893;SDS011;53801;55.786;49.142;2022-11-04T14:15:09;14.48;;;3.30;;
66893;SDS011;53801;55.786;49.142;2022-11-04T15:01:54;15.00;;;3.35;;
66893;SDS011;53801;55.786;49.142;2022-11-04T15:06:52;18.33;;;3.10;;
66893;SDS011;53801;55.786;49.142;2022-11-04T15:09:20;11.55;;;2.95;;
66893;SDS011;53801;55.786;49.142;2022-11-04T15:14:54;13.57;;;3.13;;
66893;SDS011;53801;55.786;49.142;2022-11-04T15:17:20;20.67;;;3.42;;
66893;SDS011;53801;55.786;49.142;2022-11-04T15:19:47;17.40;;;4.03;;
66893;SDS011;53801;55.786;49.142;2022-11-04T15:22:13;10.38;;;2.75;;
66893;SDS011;53801;55.786;49.142;2022-11-04T15:24:41;9.88;;;2.70;;
66893;SDS011;53801;55.786;49.142;2022-11-04T15:27:11;12.38;;;3.33;;
66893;SDS011;53801;55.786;49.142;2022-11-04T15:29:37;40.83;;;4.65;;
66893;SDS011;53801;55.786;49.142;2022-11-04T15:32:03;20.23;;;3.27;;
66893;SDS011;53801;55.786;49.142;2022-11-04T15:34:29;13.90;;;3.47;;
66893;SDS011;53801;55.786;49.142;2022-11-04T15:36:55;15.98;;;3.25;;
66893;SDS011;53801;55.786;49.142;2022-11-04T15:39:21;21.83;;;3.65;;
66893;SDS011;53801;55.786;49.142;2022-11-04T15:41:53;23.50;;;5.10;;
66893;SDS011;53801;55.786;49.142;2022-11-04T15:44:37;22.95;;;3.15;;
66893;SDS011;53801;55.786;49.142;2022-11-04T15:49:43;16.98;;;3.92;;
66893;SDS011;53801;55.786;49.142;2022-11-04T15:52:13;12.10;;;2.80;;
66893;SDS011;53801;55.786;49.142;2022-11-04T15:54:43;12.83;;;2.90;;
66893;SDS011;53801;55.786;49.142;2022-11-04T15:57:14;13.90;;;3.15;;
66893;SDS011;53801;55.786;49.142;2022-11-04T15:59:44;25.10;;;4.22;;
66893;SDS011;53801;55.786;49.142;2022-11-04T16:07:33;13.10;;;2.60;;
66893;SDS011;53801;55.786;49.142;2022-11-04T16:09:59;16.23;;;3.88;;
66893;SDS011;53801;55.786;49.142;2022-11-04T16:14:54;16.48;;;3.90;;
66893;SDS011;53801;55.786;49.142;2022-11-04T16:17:30;19.30;;;4.13;;
66893;SDS011;53801;55.786;49.142;2022-11-04T16:19:57;22.13;;;3.47;;
66893;SDS011;53801;55.786;49.142;2022-11-04T16:25:19;30.73;;;4.43;;
66893;SDS011;53801;55.786;49.142;2022-11-04T16:27:50;19.65;;;4.07;;
66893;SDS011;53801;55.786;49.142;2022-11-04T16:30:17;37.03;;;4.37;;
66893;SDS011;53801;55.786;49.142;2022-11-04T16:32:44;9.48;;;2.92;;
66893;SDS011;53801;55.786;49.142;2022-11-04T16:35:25;21.60;;;3.40;;
66893;SDS011;53801;55.786;49.142;2022-11-04T16:37:51;11.73;;;3.23;;
66893;SDS011;53801;55.786;49.142;2022-11-04T16:40:18;22.83;;;4.35;;
66893;SDS011;53801;55.786;49.142;2022-11-04T16:42:43;14.35;;;3.40;;
66893;SDS011;53801;55.786;49.142;2022-11-04T16:45:31;10.68;;;3.35;;
66893;SDS011;53801;55.786;49.142;2022-11-04T16:47:55;17.00;;;3.60;;
66893;SDS011;53801;55.786;49.142;2022-11-04T16:50:21;20.08;;;3.70;;
66893;SDS011;53801;55.786;49.142;2022-11-04T16:52:48;13.50;;;3.78;;
66893;SDS011;53801;55.786;49.142;2022-11-04T16:55:14;16.07;;;3.20;;
66893;SDS011;53801;55.786;49.142;2022-11-04T16:57:39;13.85;;;3.95;;
66893;SDS011;53801;55.786;49.142;2022-11-04T17:00:05;28.27;;;6.33;;
66893;SDS011;53801;55.786;49.142;2022-11-04T17:02:32;12.87;;;3.80;;
66893;SDS011;53801;55.786;49.142;2022-11-04T17:05:03;14.85;;;4.15;;
66893;SDS011;53801;55.786;49.142;2022-11-04T17:07:28;13.65;;;3.88;;
66893;SDS011;53801;55.786;49.142;2022-11-04T17:09:54;20.70;;;3.73;;
66893;SDS011;53801;55.786;49.142;2022-11-04T17:12:19;22.17;;;4.20;;
66893;SDS011;53801;55.786;49.142;2022-11-04T17:14:44;15.57;;;4.75;;
66893;SDS011;53801;55.786;49.142;2022-11-04T17:17:10;19.77;;;4.35;;
66893;SDS011;53801;55.786;49.142;2022-11-04T17:19:36;13.63;;;4.17;;
66893;SDS011;53801;55.786;49.142;2022-11-04T17:22:01;34.67;;;5.93;;
66893;SDS011;53801;55.786;49.142;2022-11-04T17:24:28;13.50;;;3.53;;
66893;SDS011;53801;55.786;49.142;2022-11-04T17:26:58;19.42;;;4.05;;
66893;SDS011;53801;55.786;49.142;2022-11-04T17:29:23;15.45;;;3.38;;
66893;SDS011;53801;55.786;49.142;2022-11-04T17:31:49;9.47;;;3.53;;
66893;SDS011;53801;55.786;49.142;2022-11-04T17:34:14;24.25;;;5.95;;
66893;SDS011;53801;55.786;49.142;2022-11-04T17:36:39;26.00;;;5.03;;
66893;SDS011;53801;55.786;49.142;2022-11-04T17:39:05;15.80;;;6.10;;
66893;SDS011;53801;55.786;49.142;2022-11-04T17:41:31;13.53;;;4.17;;
66893;SDS011;53801;55.786;49.142;2022-11-04T17:44:15;17.17;;;3.72;;
66893;SDS011;53801;55.786;49.142;2022-11-04T17:46:40;12.50;;;3.47;;
66893;SDS011;53801;55.786;49.142;2022-11-04T17:49:13;17.77;;;4.10;;
66893;SDS011;53801;55.786;49.142;2022-11-04T17:51:39;31.00;;;4.88;;
66893;SDS011;53801;55.786;49.142;2022-11-04T17:54:05;18.88;;;3.70;;
66893;SDS011;53801;55.786;49.142;2022-11-04T17:56:31;13.80;;;3.63;;
66893;SDS011;53801;55.786;49.142;2022-11-04T17:59:00;14.18;;;3.70;;
66893;SDS011;53801;55.786;49.142;2022-11-04T18:01:26;15.53;;;4.30;;
66893;SDS011;53801;55.786;49.142;2022-11-04T18:03:52;8.57;;;3.42;;
66893;SDS011;53801;55.786;49.142;2022-11-04T18:06:18;23.00;;;3.92;;
66893;SDS011;53801;55.786;49.142;2022-11-04T18:08:44;21.73;;;5.07;;
66893;SDS011;53801;55.786;49.142;2022-11-04T18:11:10;12.53;;;3.70;;
66893;SDS011;53801;55.786;49.142;2022-11-04T18:13:36;13.98;;;4.10;;
66893;SDS011;53801;55.786;49.142;2022-11-04T18:16:14;13.83;;;3.97;;
66893;SDS011;53801;55.786;49.142;2022-11-04T18:18:43;12.07;;;3.53;;
66893;SDS011;53801;55.786;49.142;2022-11-04T18:21:09;16.83;;;4.65;;
66893;SDS011;53801;55.786;49.142;2022-11-04T18:23:35;13.17;;;4.17;;
66893;SDS011;53801;55.786;49.142;2022-11-04T18:28:49;8.63;;;3.00;;
66893;SDS011;53801;55.786;49.142;2022-11-04T18:31:19;17.43;;;3.83;;
66893;SDS011;53801;55.786;49.142;2022-11-04T18:33:46;14.88;;;3.75;;
66893;SDS011;53801;55.786;49.142;2022-11-04T18:36:11;9.33;;;3.80;;
66893;SDS011;53801;55.786;49.142;2022-11-04T18:38:37;16.45;;;3.72;;
66893;SDS011;53801;55.786;49.142;2022-11-04T18:41:02;15.80;;;3.90;;
66893;SDS011;53801;55.786;49.142;2022-11-04T18:43:27;11.83;;;3.93;;
66893;SDS011;53801;55.786;49.142;2022-11-04T18:45:53;16.77;;;3.80;;
66893;SDS011;53801;55.786;49.142;2022-11-04T18:48:19;12.73;;;4.27;;
66893;SDS011;53801;55.786;49.142;2022-11-04T18:50:44;9.13;;;3.45;;
66893;SDS011;53801;55.786;49.142;2022-11-04T18:53:10;12.90;;;3.73;;
66893;SDS011;53801;55.786;49.142;2022-11-04T18:55:36;8.88;;;3.30;;
66893;SDS011;53801;55.786;49.142;2022-11-04T18:58:01;16.17;;;3.90;;
66893;SDS011;53801;55.786;49.142;2022-11-04T19:00:27;12.63;;;3.70;;
66893;SDS011;53801;55.786;49.142;2022-11-04T19:02:53;21.45;;;3.17;;
66893;SDS011;53801;55.786;49.142;2022-11-04T19:05:18;17.20;;;4.30;;
66893;SDS011;53801;55.786;49.142;2022-11-04T19:07:43;15.37;;;4.20;;
66893;SDS011;53801;55.786;49.142;2022-11-04T19:10:09;17.80;;;3.90;;
66893;SDS011;53801;55.786;49.142;2022-11-04T19:12:37;23.20;;;4.47;;
66893;SDS011;53801;55.786;49.142;2022-11-04T19:15:21;15.05;;;4.30;;
66893;SDS011;53801;55.786;49.142;2022-11-04T19:17:47;27.50;;;4.27;;
66893;SDS011;53801;55.786;49.142;2022-11-04T19:20:15;15.30;;;4.30;;
66893;SDS011;53801;55.786;49.142;2022-11-04T19:22:41;14.83;;;4.27;;
66893;SDS011;53801;55.786;49.142;2022-11-04T19:25:07;15.25;;;4.15;;
66893;SDS011;53801;55.786;49.142;2022-11-04T19:27:32;17.93;;;4.20;;
66893;SDS011;53801;55.786;49.142;2022-11-04T19:29:58;18.75;;;4.80;;
66893;SDS011;53801;55.786;49.142;2022-11-04T19:32:24;21.23;;;4.57;;
66893;SDS011;53801;55.786;49.142;2022-11-04T19:34:49;12.77;;;4.67;;
66893;SDS011;53801;55.786;49.142;2022-11-04T19:37:15;15.38;;;4.85;;
66893;SDS011;53801;55.786;49.142;2022-11-04T19:39:40;15.37;;;4.67;;
66893;SDS011;53801;55.786;49.142;2022-11-04T19:42:06;10.87;;;4.43;;
66893;SDS011;53801;55.786;49.142;2022-11-04T19:44:50;14.13;;;4.30;;
66893;SDS011;53801;55.786;49.142;2022-11-04T19:47:16;9.47;;;3.63;;
66893;SDS011;53801;55.786;49.142;2022-11-04T19:49:41;17.33;;;4.55;;
66893;SDS011;53801;55.786;49.142;2022-11-04T19:52:07;11.87;;;3.83;;
66893;SDS011;53801;55.786;49.142;2022-11-04T19:54:33;13.23;;;5.25;;
66893;SDS011;53801;55.786;49.142;2022-11-04T19:56:58;11.13;;;4.07;;
66893;SDS011;53801;55.786;49.142;2022-11-04T19:59:24;15.20;;;4.37;;
66893;SDS011;53801;55.786;49.142;2022-11-04T20:01:49;19.65;;;4.50;;
66893;SDS011;53801;55.786;49.142;2022-11-04T20:04:15;12.73;;;3.93;;
66893;SDS011;53801;55.786;49.142;2022-11-04T20:06:41;10.10;;;3.70;;
66893;SDS011;53801;55.786;49.142;2022-11-04T20:09:07;11.10;;;4.50;;
66893;SDS011;53801;55.786;49.142;2022-11-04T20:11:35;12.85;;;4.13;;
66893;SDS011;53801;55.786;49.142;2022-11-04T20:14:21;14.30;;;3.90;;
66893;SDS011;53801;55.786;49.142;2022-11-04T20:16:46;9.85;;;3.83;;
66893;SDS011;53801;55.786;49.142;2022-11-04T20:19:12;10.75;;;4.10;;
66893;SDS011;53801;55.786;49.142;2022-11-04T20:21:38;11.33;;;3.90;;
66893;SDS011;53801;55.786;49.142;2022-11-04T20:24:05;10.68;;;3.17;;
66893;SDS011;53801;55.786;49.142;2022-11-04T20:26:32;12.90;;;3.90;;
66893;SDS011;53801;55.786;49.142;2022-11-04T20:28:58;8.98;;;3.47;;
66893;SDS011;53801;55.786;49.142;2022-11-04T20:31:25;12.52;;;4.20;;
66893;SDS011;53801;55.786;49.142;2022-11-04T20:33:52;18.83;;;4.68;;
66893;SDS011;53801;55.786;49.142;2022-11-04T20:36:26;8.57;;;3.37;;
66893;SDS011;53801;55.786;49.142;2022-11-04T20:38:58;14.45;;;3.35;;
66893;SDS011;53801;55.786;49.142;2022-11-04T20:41:24;11.95;;;4.15;;
66893;SDS011;53801;55.786;49.142;2022-11-04T20:43:49;11.18;;;3.88;;
66893;SDS011;53801;55.786;49.142;2022-11-04T20:46:19;12.47;;;3.93;;
66893;SDS011;53801;55.786;49.142;2022-11-04T20:48:46;16.75;;;3.83;;
66893;SDS011;53801;55.786;49.142;2022-11-04T20:51:18;10.80;;;3.75;;
66893;SDS011;53801;55.786;49.142;2022-11-04T20:53:44;11.67;;;3.60;;
66893;SDS011;53801;55.786;49.142;2022-11-04T20:56:11;17.23;;;4.70;;
66893;SDS011;53801;55.786;49.142;2022-11-04T20:58:37;10.63;;;4.15;;
66893;SDS011;53801;55.786;49.142;2022-11-04T21:01:04;8.52;;;3.70;;
66893;SDS011;53801;55.786;49.142;2022-11-04T21:03:29;12.45;;;4.25;;
66893;SDS011;53801;55.786;49.142;2022-11-04T21:05:55;22.97;;;11.67;;
66893;SDS011;53801;55.786;49.142;2022-11-04T21:08:21;12.27;;;4.50;;
66893;SDS011;53801;55.786;49.142;2022-11-04T21:10:50;17.33;;;4.60;;
66893;SDS011;53801;55.786;49.142;2022-11-04T21:13:15;11.63;;;4.60;;
66893;SDS011;53801;55.786;49.142;2022-11-04T21:15:41;12.73;;;4.97;;
66893;SDS011;53801;55.786;49.142;2022-11-04T21:18:07;11.73;;;4.83;;
66893;SDS011;53801;55.786;49.142;2022-11-04T21:20:36;14.52;;;4.47;;
66893;SDS011;53801;55.786;49.142;2022-11-04T21:23:13;11.60;;;3.50;;
66893;SDS011;53801;55.786;49.142;2022-11-04T21:25:43;11.97;;;4.27;;
66893;SDS011;53801;55.786;49.142;2022-11-04T21:33:34;10.15;;;4.20;;
66893;SDS011;53801;55.786;49.142;2022-11-04T21:36:07;9.30;;;3.83;;
66893;SDS011;53801;55.786;49.142;2022-11-04T21:38:34;10.55;;;4.05;;
66893;SDS011;53801;55.786;49.142;2022-11-04T21:41:01;9.40;;;3.88;;
66893;SDS011;53801;55.786;49.142;2022-11-04T21:43:27;12.33;;;3.70;;
66893;SDS011;53801;55.786;49.142;2022-11-04T21:46:08;14.02;;;4.30;;
66893;SDS011;53801;55.786;49.142;2022-11-04T21:48:34;10.85;;;3.97;;
66893;SDS011;53801;55.786;49.142;2022-11-04T21:57:02;8.87;;;3.60;;
66893;SDS011;53801;55.786;49.142;2022-11-04T22:04:54;10.18;;;4.78;;
66893;SDS011;53801;55.786;49.142;2022-11-04T22:07:19;9.30;;;4.10;;
66893;SDS011;53801;55.786;49.142;2022-11-04T22:10:05;9.60;;;3.17;;
66893;SDS011;53801;55.786;49.142;2022-11-04T22:12:30;8.87;;;4.10;;
66893;SDS011;53801;55.786;49.142;2022-11-04T22:14:58;18.33;;;3.38;;
66893;SDS011;53801;55.786;49.142;2022-11-04T22:17:24;13.57;;;2.93;;
66893;SDS011;53801;55.786;49.142;2022-11-04T22:19:49;8.83;;;3.00;;
66893;SDS011;53801;55.786;49.142;2022-11-04T22:22:18;7.85;;;3.05;;
66893;SDS011;53801;55.786;49.142;2022-11-04T22:24:43;8.73;;;3.10;;
66893;SDS011;53801;55.786;49.142;2022-11-04T22:27:08;12.85;;;3.60;;
66893;SDS011;53801;55.786;49.142;2022-11-04T22:29:34;6.00;;;2.40;;
66893;SDS011;53801;55.786;49.142;2022-11-04T22:31:59;6.33;;;2.70;;
66893;SDS011;53801;55.786;49.142;2022-11-04T22:34:25;7.33;;;2.80;;
66893;SDS011;53801;55.786;49.142;2022-11-04T22:36:50;6.37;;;3.03;;
66893;SDS011;53801;55.786;49.142;2022-11-04T22:39:15;15.93;;;3.80;;
66893;SDS011;53801;55.786;49.142;2022-11-04T22:41:41;7.53;;;2.58;;
66893;SDS011;53801;55.786;49.142;2022-11-04T22:44:07;7.93;;;2.70;;
66893;SDS011;53801;55.786;49.142;2022-11-04T22:46:33;6.22;;;2.72;;
66893;SDS011;53801;55.786;49.142;2022-11-04T22:48:59;8.48;;;2.92;;
66893;SDS011;53801;55.786;49.142;2022-11-04T22:51:25;6.40;;;2.87;;
66893;SDS011;53801;55.786;49.142;2022-11-04T22:53:58;12.48;;;2.88;;
66893;SDS011;53801;55.786;49.142;2022-11-04T22:56:26;10.82;;;2.83;;
66893;SDS011;53801;55.786;49.142;2022-11-04T22:58:51;8.00;;;2.87;;
66893;SDS011;53801;55.786;49.142;2022-11-04T23:01:18;7.53;;;3.15;;
66893;SDS011;53801;55.786;49.142;2022-11-04T23:03:43;8.67;;;3.33;;
66893;SDS011;53801;55.786;49.142;2022-11-04T23:06:08;11.60;;;3.77;;
66893;SDS011;53801;55.786;49.142;2022-11-04T23:08:34;10.88;;;4.68;;
66893;SDS011;53801;55.786;49.142;2022-11-04T23:11:02;14.80;;;5.53;;
66893;SDS011;53801;55.786;49.142;2022-11-04T23:13:48;10.40;;;4.18;;
66893;SDS011;53801;55.786;49.142;2022-11-04T23:16:33;12.82;;;3.90;;
66893;SDS011;53801;55.786;49.142;2022-11-04T23:19:17;8.60;;;3.22;;
66893;SDS011;53801;55.786;49.142;2022-11-04T23:21:42;9.17;;;3.73;;
66893;SDS011;53801;55.786;49.142;2022-11-04T23:24:26;9.20;;;3.25;;
66893;SDS011;53801;55.786;49.142;2022-11-04T23:27:10;8.77;;;3.20;;
66893;SDS011;53801;55.786;49.142;2022-11-04T23:29:57;10.02;;;3.40;;
66893;SDS011;53801;55.786;49.142;2022-11-04T23:32:41;10.90;;;3.75;;
66893;SDS011;53801;55.786;49.142;2022-11-04T23:35:07;7.43;;;3.33;;
66893;SDS011;53801;55.786;49.142;2022-11-04T23:37:54;10.60;;;3.67;;
66893;SDS011;53801;55.786;49.142;2022-11-04T23:40:20;8.02;;;2.78;;
66893;SDS011;53801;55.786;49.142;2022-11-04T23:42:45;8.97;;;3.20;;
66893;SDS011;53801;55.786;49.142;2022-11-04T23:45:11;7.77;;;3.20;;
66893;SDS011;53801;55.786;49.142;2022-11-04T23:47:55;8.30;;;3.60;;
66893;SDS011;53801;55.786;49.142;2022-11-04T23:50:39;8.10;;;3.00;;
66893;SDS011;53801;55.786;49.142;2022-11-04T23:53:22;10.17;;;3.47;;
66893;SDS011;53801;55.786;49.142;2022-11-04T23:56:08;7.78;;;3.30;;
66893;SDS011;53801;55.786;49.142;2022-11-04T23:58:53;9.35;;;3.38;;
